Aérodrome :
LOGIN :

S'inscrire | Disclaimer

   EN    FR    IT 

 










Légende :    VFR   VFR Marginal   IFR   IFR Intensif   IFR Très Intensif
Visi : 
Plafond : 
>= 8 km
>= 3000ft
5 à 8 km
1000 à 3000 ft
1500m à 5 km
500 à 1000 ft
800 à 1500m
200 à 500 ft
< 800m
< 200 ft
Symboles :   Orages  Brouillard  Fortes neiges  Fortes précipitations  Vent > 20 kt
SIGMETs :   Divers  Orages  Givrage  Turbulence  Onde Orograph.  Cendres Volcan.






- Altitude de l'aérodrome : 1115 ft
- Code IATA : GRZ


LOWG - Graz

DERNIER METAR :
  • 180550Z VRB01KT 9999 FEW050 BKN090 05/02 Q1022 R17/19//95 NOSIG

METARs EXPIRÉS :
  • 180520Z AUTO VRB02KT 9999 BKN080 05/02 Q1022 R17/19//95 NOSIG
  • 180450Z AUTO VRB02KT 9999 FEW070 BKN080 05/02 Q1022 R17/19//95 NOSIG
  • 180420Z AUTO VRB02KT 9999 -DZ FEW070 BKN080 05/02 Q1022
  • 180350Z AUTO VRB02KT 9999 FEW050 OVC080 05/02 Q1021
  • 180320Z AUTO VRB01KT 9999 FEW060 BKN070 05/02 Q1021

TAF TAF LOWG
Valide du 18 à 06h jusqu'au 19 à 06h UTC


180515Z 1806/1906 VRB02KT 9999 FEW060 SCT090 TX13/1814Z TN00/1905Z
TEMPO 1806/1811 34007KT
TEMPO 1901/1906 -SHRA SCT045 BKN070



MET'MAP, la Météo Aéronautique d'un coup d'oeil ! - Copyright ORBIFLY Décembre 2007 - Disclaimer

ORBIFLY MET'MAP TEAM :

Programmation & Développement : Alexandra Zaïnal
Sur une idée originale de : Baudouin d'Aumeries
Assistance à la programmation : Marc-Olivier Méhu
Soutien technique & logistique : Manuel Goepfert

Contact : metmap@orbifly.com




SOURCES & CREDITS :

   NOAA